createdAt,value
2019-04-30T00:02:19.665Z,27.20
2019-04-30T00:04:50.439Z,26.00
2019-04-30T00:07:20.866Z,26.62
2019-04-30T00:09:54.064Z,26.82
2019-04-30T00:12:25.635Z,27.13
2019-04-30T00:14:55.226Z,27.20
2019-04-30T00:17:25.692Z,28.38
2019-04-30T00:19:59.899Z,28.12
2019-04-30T00:22:33.758Z,26.27
2019-04-30T00:25:00.048Z,26.70
2019-04-30T00:27:30.317Z,27.67
2019-04-30T00:30:07.272Z,27.25
2019-04-30T00:32:32.552Z,26.12
2019-04-30T00:35:02.748Z,29.00
2019-04-30T00:37:32.470Z,28.10
2019-04-30T00:40:02.100Z,30.40
2019-04-30T00:42:32.074Z,31.30
2019-04-30T00:45:06.693Z,31.37
2019-04-30T00:47:35.192Z,32.45
2019-04-30T00:50:05.447Z,32.67
2019-04-30T00:52:37.380Z,34.10
2019-04-30T00:55:09.198Z,32.30
2019-04-30T00:57:43.673Z,35.95
2019-04-30T01:00:17.027Z,33.48
2019-04-30T01:03:05.984Z,33.25
2019-04-30T01:05:35.339Z,36.00
2019-04-30T01:08:07.116Z,32.85
2019-04-30T01:10:36.776Z,32.70
2019-04-30T01:13:10.995Z,36.08
2019-04-30T01:15:39.121Z,36.15
2019-04-30T01:18:09.367Z,35.50
2019-04-30T01:20:40.669Z,38.10
2019-04-30T01:23:13.052Z,36.08
2019-04-30T01:25:43.096Z,37.23
2019-04-30T01:28:16.298Z,35.43
2019-04-30T01:30:46.663Z,35.60
2019-04-30T01:33:19.032Z,36.17
2019-04-30T01:35:48.865Z,35.98
2019-04-30T01:38:18.903Z,33.45
2019-04-30T01:40:51.145Z,37.33
2019-04-30T01:43:30.518Z,32.15
2019-04-30T01:45:53.511Z,31.12
2019-04-30T01:48:23.525Z,33.45
2019-04-30T01:50:53.181Z,31.40
2019-04-30T01:53:23.076Z,32.20
2019-04-30T01:56:14.331Z,32.08
2019-04-30T01:58:49.834Z,32.85
2019-04-30T02:01:21.389Z,32.70
2019-04-30T02:03:51.303Z,32.98
2019-04-30T02:06:20.927Z,29.27
2019-04-30T02:08:50.823Z,29.50
2019-04-30T02:11:20.547Z,27.95
2019-04-30T02:13:51.064Z,27.50
2019-04-30T02:16:21.716Z,25.02
2019-04-30T02:18:52.127Z,23.30
2019-04-30T02:21:22.857Z,24.10
2019-04-30T02:23:52.454Z,23.22
2019-04-30T02:26:22.478Z,23.45
2019-04-30T02:28:52.498Z,23.55
2019-04-30T02:31:23.109Z,24.20
2019-04-30T02:34:00.299Z,24.82
2019-04-30T02:36:59.104Z,26.60
2019-04-30T02:39:30.265Z,23.40
2019-04-30T02:42:01.366Z,26.05
2019-04-30T02:44:32.572Z,26.52
2019-04-30T02:47:03.099Z,25.40
2019-04-30T02:49:34.010Z,25.60
2019-04-30T02:52:04.790Z,24.63
2019-04-30T02:54:39.461Z,22.35
2019-04-30T02:57:13.196Z,25.57
2019-04-30T03:00:01.480Z,23.42
2019-04-30T03:02:32.181Z,22.20
2019-04-30T03:05:01.913Z,22.95
2019-04-30T03:07:32.079Z,23.55
2019-04-30T03:10:02.053Z,25.82
2019-04-30T03:12:33.839Z,24.07
2019-04-30T03:15:03.447Z,26.35
2019-04-30T03:18:00.645Z,26.25
2019-04-30T03:20:52.460Z,26.77
2019-04-30T03:23:22.460Z,27.70
2019-04-30T03:25:52.471Z,24.60
2019-04-30T03:28:22.068Z,25.60
2019-04-30T03:30:57.536Z,23.42
2019-04-30T03:33:24.766Z,21.90
2019-04-30T03:35:55.236Z,22.15
2019-04-30T03:38:25.881Z,21.02
2019-04-30T03:40:56.568Z,17.40
2019-04-30T03:43:27.009Z,16.12
2019-04-30T03:45:59.342Z,14.60
2019-04-30T03:48:29.484Z,13.78
2019-04-30T03:51:01.176Z,13.93
2019-04-30T03:53:31.154Z,12.37
2019-04-30T03:56:01.573Z,13.15
2019-04-30T03:58:32.324Z,11.75
2019-04-30T04:01:12.079Z,11.57
2019-04-30T04:04:01.457Z,11.65
2019-04-30T04:06:39.318Z,12.43
2019-04-30T04:09:15.886Z,11.60
2019-04-30T04:11:46.544Z,10.68
2019-04-30T04:14:19.595Z,11.60
2019-04-30T04:17:09.882Z,13.08
2019-04-30T04:19:39.506Z,11.78
2019-04-30T04:22:12.224Z,11.63
2019-04-30T04:24:41.868Z,11.93
2019-04-30T04:27:11.578Z,12.33
2019-04-30T04:29:41.623Z,13.60
2019-04-30T04:32:11.988Z,12.73
2019-04-30T04:34:44.896Z,11.38
2019-04-30T04:37:13.026Z,11.28
2019-04-30T04:39:43.251Z,10.88
2019-04-30T04:42:13.272Z,11.63
2019-04-30T04:44:43.580Z,11.68
2019-04-30T04:47:16.073Z,11.55
2019-04-30T04:49:45.667Z,10.65
2019-04-30T04:52:16.023Z,10.60
2019-04-30T04:54:46.312Z,10.45
2019-04-30T04:57:19.311Z,11.30
2019-04-30T04:59:49.971Z,10.85
2019-04-30T05:02:49.616Z,11.68
2019-04-30T05:05:19.526Z,13.75
2019-04-30T05:07:50.010Z,15.32
2019-04-30T05:10:19.371Z,50.03
2019-04-30T05:12:51.060Z,22.67
2019-04-30T05:15:21.242Z,29.30
2019-04-30T05:17:51.490Z,23.77
2019-04-30T05:20:21.504Z,35.70
2019-04-30T05:22:52.164Z,26.07
2019-04-30T05:25:21.894Z,26.12
2019-04-30T05:27:51.586Z,25.75
2019-04-30T05:30:21.486Z,28.05
2019-04-30T05:32:51.746Z,26.15
2019-04-30T05:35:22.027Z,27.17
2019-04-30T05:37:51.907Z,28.17
2019-04-30T05:40:21.186Z,29.70
2019-04-30T05:42:51.401Z,28.02
2019-04-30T05:45:21.450Z,30.17
2019-04-30T05:47:51.192Z,29.87
2019-04-30T05:50:20.551Z,34.67
2019-04-30T05:52:50.703Z,38.42
2019-04-30T05:55:20.928Z,38.08
2019-04-30T05:57:56.004Z,35.30
2019-04-30T06:00:22.882Z,41.48
2019-04-30T06:02:52.928Z,35.92
2019-04-30T06:05:23.249Z,35.78
2019-04-30T06:07:55.334Z,42.15
2019-04-30T06:10:51.854Z,49.98
2019-04-30T06:13:28.708Z,41.77
2019-04-30T06:16:02.419Z,39.95
2019-04-30T06:18:32.715Z,43.00
2019-04-30T06:21:03.379Z,33.70
2019-04-30T06:23:33.655Z,49.03
2019-04-30T06:26:09.650Z,49.70
2019-04-30T06:28:36.097Z,43.08
2019-04-30T06:31:06.519Z,43.30
2019-04-30T06:33:36.546Z,45.85
2019-04-30T06:36:08.551Z,49.33
2019-04-30T06:38:38.673Z,49.23
2019-04-30T06:41:09.292Z,46.88
2019-04-30T06:43:39.359Z,50.23
2019-04-30T06:46:10.415Z,48.87
2019-04-30T06:48:41.883Z,49.67
2019-04-30T06:51:12.319Z,50.55
2019-04-30T06:53:41.914Z,50.05
2019-04-30T06:56:31.170Z,48.63
2019-04-30T06:59:00.462Z,48.40
2019-04-30T07:01:31.205Z,52.35
2019-04-30T07:04:01.510Z,46.88
2019-04-30T07:06:36.773Z,45.40
2019-04-30T07:09:14.494Z,44.18
2019-04-30T07:11:49.391Z,49.63
2019-04-30T07:14:20.143Z,43.80
2019-04-30T07:16:50.160Z,44.67
2019-04-30T07:19:31.765Z,45.98
2019-04-30T07:21:51.865Z,45.70
2019-04-30T07:24:21.664Z,45.52
2019-04-30T07:26:54.841Z,44.73
2019-04-30T07:29:23.000Z,42.38
2019-04-30T07:31:53.666Z,46.15
2019-04-30T07:34:23.247Z,44.18
2019-04-30T07:37:10.759Z,47.05
2019-04-30T07:39:31.214Z,46.20
2019-04-30T07:41:56.618Z,46.45
2019-04-30T07:44:33.765Z,47.67
2019-04-30T07:46:59.394Z,47.23
2019-04-30T07:49:46.935Z,45.75
2019-04-30T07:52:04.536Z,44.93
2019-04-30T07:54:35.453Z,45.12
2019-04-30T07:57:05.400Z,47.48
2019-04-30T07:59:35.506Z,46.40
2019-04-30T08:02:13.722Z,49.03
2019-04-30T08:05:05.041Z,45.35
2019-04-30T08:07:35.122Z,45.17
2019-04-30T08:10:06.434Z,42.27
2019-04-30T08:12:42.680Z,41.92
2019-04-30T08:15:11.187Z,41.77
2019-04-30T08:17:41.180Z,43.02
2019-04-30T08:20:11.265Z,42.53
2019-04-30T08:22:41.130Z,41.80
2019-04-30T08:25:31.367Z,40.38
2019-04-30T08:28:01.778Z,40.05
2019-04-30T08:30:32.088Z,39.08
2019-04-30T08:33:01.718Z,37.10
2019-04-30T08:35:31.742Z,37.15
2019-04-30T08:38:02.425Z,39.73
2019-04-30T08:40:32.451Z,38.53
2019-04-30T08:43:01.712Z,37.45
2019-04-30T08:45:34.695Z,36.68
2019-04-30T08:48:03.371Z,37.08
2019-04-30T08:50:32.723Z,37.88
2019-04-30T08:53:03.205Z,38.33
2019-04-30T08:55:33.869Z,35.60
2019-04-30T08:58:10.109Z,39.08
2019-04-30T09:00:38.434Z,38.28
2019-04-30T09:03:09.375Z,40.20
2019-04-30T09:06:17.110Z,41.13
2019-04-30T09:08:49.780Z,41.58
2019-04-30T09:11:24.655Z,42.75
2019-04-30T09:13:51.828Z,42.05
2019-04-30T09:16:21.780Z,41.80
2019-04-30T09:18:52.006Z,41.90
2019-04-30T09:21:22.362Z,41.65
2019-04-30T09:23:52.923Z,38.00
2019-04-30T09:26:22.982Z,38.45
2019-04-30T09:28:53.038Z,40.80
2019-04-30T09:31:22.598Z,46.33
2019-04-30T09:33:52.509Z,42.13
2019-04-30T09:36:22.513Z,38.60
2019-04-30T09:38:52.851Z,36.77
2019-04-30T09:41:23.518Z,37.05
2019-04-30T09:43:53.883Z,39.45
2019-04-30T09:46:27.051Z,38.05
2019-04-30T09:48:55.630Z,38.17
2019-04-30T09:51:26.120Z,37.85
2019-04-30T09:53:59.657Z,39.95
2019-04-30T09:56:29.340Z,38.95
2019-04-30T09:58:59.690Z,40.40
2019-04-30T10:01:32.155Z,40.30
2019-04-30T10:04:01.338Z,41.28
2019-04-30T10:06:39.850Z,40.80
2019-04-30T10:09:03.844Z,42.50
2019-04-30T10:11:50.094Z,42.43
2019-04-30T10:14:20.793Z,41.75
2019-04-30T10:17:00.271Z,40.38
2019-04-30T10:19:29.885Z,36.90
2019-04-30T10:22:00.293Z,38.42
2019-04-30T10:24:30.629Z,36.53
2019-04-30T10:27:02.136Z,37.88
2019-04-30T10:29:32.218Z,36.03
2019-04-30T10:32:01.818Z,37.15
2019-04-30T10:34:32.109Z,33.53
2019-04-30T10:37:03.038Z,35.48
2019-04-30T10:39:33.350Z,36.15
2019-04-30T10:42:02.992Z,34.92
2019-04-30T10:44:33.409Z,35.90
2019-04-30T10:47:03.083Z,35.55
2019-04-30T10:49:33.377Z,37.50
2019-04-30T10:52:03.074Z,38.13
2019-04-30T10:54:33.102Z,37.08
2019-04-30T10:57:03.615Z,35.68
2019-04-30T10:59:33.835Z,35.70
2019-04-30T11:02:04.475Z,35.85
2019-04-30T11:04:34.407Z,38.45
2019-04-30T11:07:05.584Z,36.95
2019-04-30T11:09:35.192Z,39.10
2019-04-30T11:12:06.800Z,35.10
2019-04-30T11:14:36.417Z,37.80
2019-04-30T11:17:07.158Z,36.68
2019-04-30T11:19:39.056Z,38.85
2019-04-30T11:22:09.681Z,40.17
2019-04-30T11:24:55.546Z,40.35
2019-04-30T11:27:13.355Z,40.33
2019-04-30T11:29:44.555Z,39.33
2019-04-30T11:32:19.659Z,38.15
2019-04-30T11:34:50.218Z,39.40
2019-04-30T11:37:21.094Z,38.60
2019-04-30T11:39:51.372Z,38.98
2019-04-30T11:42:21.443Z,42.03
2019-04-30T11:44:51.060Z,38.48
2019-04-30T11:47:28.474Z,37.28
2019-04-30T11:49:59.545Z,39.45
2019-04-30T11:52:29.241Z,37.88
2019-04-30T11:54:59.817Z,36.90
2019-04-30T11:57:29.951Z,36.28
2019-04-30T12:00:00.050Z,35.15
2019-04-30T12:02:54.714Z,34.98
2019-04-30T12:05:24.911Z,34.83
2019-04-30T12:08:06.867Z,33.42
2019-04-30T12:10:44.666Z,36.48
2019-04-30T12:13:25.007Z,38.35
2019-04-30T12:15:55.573Z,37.13
2019-04-30T12:18:26.104Z,40.08
2019-04-30T12:20:56.098Z,35.43
2019-04-30T12:23:25.844Z,33.33
2019-04-30T12:25:56.072Z,34.08
2019-04-30T12:28:27.275Z,37.15
2019-04-30T12:30:58.896Z,36.00
2019-04-30T12:33:28.569Z,33.10
2019-04-30T12:35:59.602Z,32.48
2019-04-30T12:38:29.974Z,30.25
2019-04-30T12:40:59.771Z,33.75
2019-04-30T12:43:30.485Z,30.72
2019-04-30T12:46:03.321Z,29.75
2019-04-30T12:49:00.580Z,24.27
2019-04-30T12:51:46.161Z,28.90
2019-04-30T12:54:44.442Z,27.10
2019-04-30T12:57:39.280Z,26.85
2019-04-30T13:00:13.098Z,25.88
2019-04-30T13:02:43.075Z,24.20
2019-04-30T13:05:12.883Z,23.60
2019-04-30T13:07:43.504Z,25.10
2019-04-30T13:10:14.790Z,24.10
2019-04-30T13:12:46.051Z,24.63
2019-04-30T13:15:16.482Z,23.67
2019-04-30T13:17:49.959Z,23.75
2019-04-30T13:20:23.686Z,24.20
2019-04-30T13:22:51.828Z,23.27
2019-04-30T13:25:30.432Z,22.77
2019-04-30T13:27:56.103Z,23.22
2019-04-30T13:30:29.813Z,22.22
2019-04-30T13:33:09.474Z,23.05
2019-04-30T13:35:40.008Z,21.87
2019-04-30T13:38:18.952Z,20.50
2019-04-30T13:41:01.019Z,21.23
2019-04-30T13:43:55.872Z,21.27
2019-04-30T13:46:25.985Z,21.55
2019-04-30T13:48:55.245Z,23.70
2019-04-30T13:51:25.514Z,25.23
2019-04-30T13:53:55.775Z,26.48
2019-04-30T13:56:25.505Z,24.87
2019-04-30T13:58:56.113Z,26.07
2019-04-30T14:01:29.248Z,26.25
2019-04-30T14:04:14.300Z,26.75
2019-04-30T14:07:05.364Z,26.50
2019-04-30T14:09:54.395Z,26.62
2019-04-30T14:12:25.082Z,26.37
2019-04-30T14:14:55.388Z,26.77
2019-04-30T14:17:25.265Z,27.45
2019-04-30T14:19:55.804Z,26.90
2019-04-30T14:22:25.976Z,26.73
2019-04-30T14:24:56.133Z,26.35
2019-04-30T14:27:26.646Z,25.40
2019-04-30T14:29:56.750Z,24.92
2019-04-30T14:32:28.527Z,24.70
2019-04-30T14:34:58.933Z,26.50
2019-04-30T14:37:29.722Z,25.32
2019-04-30T14:40:02.086Z,26.25
2019-04-30T14:42:34.333Z,34.48
2019-04-30T14:45:17.642Z,29.98
2019-04-30T14:48:00.307Z,24.45
2019-04-30T14:50:30.589Z,22.07
2019-04-30T14:53:25.202Z,21.55
2019-04-30T14:56:17.055Z,23.22
2019-04-30T14:59:15.413Z,22.62
2019-04-30T15:01:59.172Z,23.32
2019-04-30T15:04:29.960Z,23.20
2019-04-30T15:06:59.989Z,22.62
2019-04-30T15:09:30.315Z,21.97
2019-04-30T15:12:00.717Z,21.97
2019-04-30T15:14:30.684Z,21.87
2019-04-30T15:17:00.996Z,22.00
2019-04-30T15:19:30.381Z,22.32
2019-04-30T15:22:03.665Z,22.37
2019-04-30T15:24:39.140Z,22.77
2019-04-30T15:27:09.460Z,24.80
2019-04-30T15:29:39.963Z,26.80
2019-04-30T15:32:10.481Z,21.97
2019-04-30T15:34:42.421Z,21.45
2019-04-30T15:37:19.286Z,20.05
2019-04-30T15:39:44.700Z,19.45
2019-04-30T15:42:15.690Z,18.73
2019-04-30T15:44:45.981Z,20.88
2019-04-30T15:47:16.046Z,23.77
2019-04-30T15:49:46.459Z,21.07
2019-04-30T15:52:16.287Z,21.27
2019-04-30T15:54:46.699Z,18.37
2019-04-30T15:57:16.342Z,18.85
2019-04-30T15:59:46.900Z,19.73
2019-04-30T16:02:34.197Z,18.70
2019-04-30T16:05:39.631Z,18.62
2019-04-30T16:08:40.357Z,18.67
2019-04-30T16:11:37.187Z,19.67
2019-04-30T16:14:15.007Z,19.15
2019-04-30T16:16:49.892Z,18.10
2019-04-30T16:19:19.548Z,18.82
2019-04-30T16:21:49.559Z,18.48
2019-04-30T16:24:19.929Z,18.32
2019-04-30T16:26:52.636Z,18.67
2019-04-30T16:29:22.015Z,19.75
2019-04-30T16:31:52.355Z,19.85
2019-04-30T16:34:23.060Z,24.80
2019-04-30T16:36:53.561Z,26.50
2019-04-30T16:39:23.616Z,20.27
2019-04-30T16:41:53.684Z,20.97
2019-04-30T16:44:24.066Z,19.87
2019-04-30T16:46:54.413Z,18.70
2019-04-30T16:49:24.855Z,17.07
2019-04-30T16:51:54.924Z,16.55
2019-04-30T16:54:25.251Z,17.62
2019-04-30T16:57:03.366Z,16.35
2019-04-30T16:59:33.719Z,14.73
2019-04-30T17:02:04.544Z,17.62
2019-04-30T17:04:43.107Z,17.50
2019-04-30T17:07:41.171Z,18.60
2019-04-30T17:10:33.333Z,18.75
2019-04-30T17:13:15.490Z,20.82
2019-04-30T17:15:45.170Z,18.80
2019-04-30T17:18:15.347Z,19.32
2019-04-30T17:20:46.005Z,18.65
2019-04-30T17:23:16.336Z,18.30
2019-04-30T17:25:47.507Z,18.37
2019-04-30T17:28:18.817Z,18.92
2019-04-30T17:30:49.220Z,18.40
2019-04-30T17:33:20.028Z,18.40
2019-04-30T17:35:50.142Z,20.12
2019-04-30T17:38:20.604Z,20.27
2019-04-30T17:40:50.299Z,20.92
2019-04-30T17:43:20.313Z,20.48
2019-04-30T17:45:49.934Z,21.25
2019-04-30T17:48:20.515Z,22.40
2019-04-30T17:50:50.959Z,31.70
2019-04-30T17:53:21.610Z,25.77
2019-04-30T17:55:51.799Z,25.85
2019-04-30T17:58:21.880Z,22.17
2019-04-30T18:00:54.823Z,24.37
2019-04-30T18:03:25.136Z,23.47
2019-04-30T18:05:54.458Z,22.13
2019-04-30T18:08:24.794Z,22.32
2019-04-30T18:10:54.812Z,21.25
2019-04-30T18:13:24.528Z,21.40
2019-04-30T18:15:54.830Z,22.32
2019-04-30T18:18:33.852Z,22.10
2019-04-30T18:21:21.999Z,22.40
2019-04-30T18:24:09.957Z,22.15
2019-04-30T18:26:45.281Z,21.25
2019-04-30T18:29:15.600Z,19.70
2019-04-30T18:31:45.353Z,20.97
2019-04-30T18:34:15.537Z,22.05
2019-04-30T18:36:45.106Z,21.25
2019-04-30T18:39:15.657Z,20.43
2019-04-30T18:41:45.436Z,23.00
2019-04-30T18:44:15.504Z,25.88
2019-04-30T18:46:46.234Z,27.15
2019-04-30T18:49:15.979Z,24.55
2019-04-30T18:51:46.438Z,21.10
2019-04-30T18:54:15.781Z,18.77
2019-04-30T18:56:45.911Z,18.15
2019-04-30T18:59:16.326Z,18.40
2019-04-30T19:01:46.848Z,17.15
2019-04-30T19:04:18.946Z,18.77
2019-04-30T19:06:49.754Z,20.43
2019-04-30T19:09:41.480Z,19.45
2019-04-30T19:12:30.559Z,20.15
2019-04-30T19:15:41.300Z,19.57
2019-04-30T19:18:19.306Z,19.50
2019-04-30T19:20:52.012Z,19.90
2019-04-30T19:23:22.375Z,19.25
2019-04-30T19:25:52.740Z,19.35
2019-04-30T19:28:22.859Z,18.57
2019-04-30T19:30:57.904Z,17.82
2019-04-30T19:33:24.666Z,19.17
2019-04-30T19:35:55.348Z,18.65
2019-04-30T19:38:26.047Z,18.20
2019-04-30T19:40:56.158Z,18.00
2019-04-30T19:43:26.295Z,19.15
2019-04-30T19:45:56.681Z,18.35
2019-04-30T19:48:27.122Z,17.50
2019-04-30T19:50:58.669Z,17.32
2019-04-30T19:53:30.372Z,18.65
2019-04-30T19:56:01.329Z,17.82
2019-04-30T19:59:01.683Z,16.52
2019-04-30T20:01:22.531Z,16.05
2019-04-30T20:03:52.943Z,16.52
2019-04-30T20:06:23.014Z,16.93
2019-04-30T20:08:53.650Z,16.35
2019-04-30T20:11:23.775Z,16.90
2019-04-30T20:13:54.086Z,16.75
2019-04-30T20:16:24.482Z,17.07
2019-04-30T20:18:54.426Z,16.97
2019-04-30T20:21:28.721Z,16.77
2019-04-30T20:23:57.143Z,17.95
2019-04-30T20:26:27.302Z,17.95
2019-04-30T20:28:58.963Z,16.65
2019-04-30T20:31:29.546Z,16.45
2019-04-30T20:34:01.483Z,16.42
2019-04-30T20:36:31.296Z,15.63
2019-04-30T20:39:26.117Z,16.10
2019-04-30T20:41:56.249Z,15.88
2019-04-30T20:44:25.925Z,15.72
2019-04-30T20:46:56.347Z,16.90
2019-04-30T20:49:26.744Z,17.57
2019-04-30T20:51:58.844Z,17.17
2019-04-30T20:54:29.265Z,16.23
2019-04-30T20:56:59.695Z,16.93
2019-04-30T20:59:29.726Z,17.17
2019-04-30T21:02:00.162Z,17.00
2019-04-30T21:04:30.203Z,18.00
2019-04-30T21:06:59.601Z,18.57
2019-04-30T21:09:30.111Z,17.62
2019-04-30T21:12:00.421Z,16.55
2019-04-30T21:14:30.854Z,18.07
2019-04-30T21:17:01.153Z,18.05
2019-04-30T21:19:31.523Z,19.42
2019-04-30T21:22:01.613Z,17.98
2019-04-30T21:24:31.230Z,18.00
2019-04-30T21:27:01.309Z,17.40
2019-04-30T21:29:31.668Z,17.52
2019-04-30T21:32:14.407Z,18.00
2019-04-30T21:35:06.517Z,18.05
2019-04-30T21:37:36.510Z,17.27
2019-04-30T21:40:06.873Z,18.15
2019-04-30T21:42:37.277Z,17.25
2019-04-30T21:45:07.804Z,16.97
2019-04-30T21:47:37.423Z,17.92
2019-04-30T21:50:10.062Z,17.00
2019-04-30T21:52:40.354Z,17.35
2019-04-30T21:55:10.243Z,17.90
2019-04-30T21:57:41.393Z,17.12
2019-04-30T22:00:14.322Z,17.70
2019-04-30T22:02:44.658Z,17.07
2019-04-30T22:05:33.510Z,17.00
2019-04-30T22:08:03.559Z,18.42
2019-04-30T22:10:34.211Z,17.15
2019-04-30T22:13:04.461Z,18.00
2019-04-30T22:15:34.114Z,18.73
2019-04-30T22:18:04.418Z,17.40
2019-04-30T22:20:34.696Z,17.40
2019-04-30T22:23:05.359Z,18.52
2019-04-30T22:25:34.943Z,17.95
2019-04-30T22:28:05.250Z,18.05
2019-04-30T22:30:36.835Z,18.12
2019-04-30T22:33:08.956Z,18.12
2019-04-30T22:35:57.098Z,18.25
2019-04-30T22:38:30.444Z,17.73
2019-04-30T22:41:00.711Z,18.40
2019-04-30T22:43:30.432Z,19.37
2019-04-30T22:46:05.103Z,18.30
2019-04-30T22:48:54.416Z,19.62
2019-04-30T22:51:24.811Z,18.85
2019-04-30T22:53:55.046Z,18.50
2019-04-30T22:56:25.501Z,18.67
2019-04-30T22:58:55.831Z,18.82
2019-04-30T23:01:53.329Z,18.80
2019-04-30T23:04:35.974Z,19.82
2019-04-30T23:07:06.471Z,20.70
2019-04-30T23:09:36.854Z,20.32
2019-04-30T23:12:07.120Z,21.00
2019-04-30T23:14:36.780Z,19.30
2019-04-30T23:17:07.436Z,20.57
2019-04-30T23:19:37.543Z,18.98
2019-04-30T23:22:07.467Z,21.07
2019-04-30T23:24:37.774Z,19.87
2019-04-30T23:27:07.744Z,19.75
2019-04-30T23:29:37.807Z,20.32
2019-04-30T23:32:07.811Z,19.42
2019-04-30T23:34:37.480Z,20.37
2019-04-30T23:37:07.770Z,20.10
2019-04-30T23:39:37.963Z,20.95
2019-04-30T23:42:07.626Z,20.10
2019-04-30T23:44:36.963Z,20.62
2019-04-30T23:47:06.322Z,21.23
2019-04-30T23:49:36.372Z,21.30
2019-04-30T23:52:05.704Z,21.45
2019-04-30T23:54:35.707Z,21.02
2019-04-30T23:57:06.098Z,21.05
2019-04-30T23:59:36.517Z,20.70
